FACH1 SCEL-SCEL
Flight info
| Callsign | FACH1 |
|---|---|
| Flight time | 0h 32m |
| Altitude | 28996 |
| Route | VTN6 VTN VTN1D |
| Aircraft | B763/H-SDFHIM3RYZ/6244 |
Departure
| Time | 2026-04-30 22:00 |
|---|---|
| Airport | Comodoro Arturo Merino Benítez International Airport (SCEL) |
Arrival
| Time | 2026-04-30 22:32 |
|---|---|
| Airport | Comodoro Arturo Merino Benítez International Airport (SCEL) |
| Time | Latitude | Longitude | Altitude | Speed | Heading |
|---|---|---|---|---|---|
| 2026-04-30 21:39 | -33.37869 | -70.79362 | 1581 ft | 0 kts | 326° |
| 2026-04-30 21:55 | -33.37859 | -70.79366 | 1581 ft | 3 kts | 346° |
| 2026-04-30 21:55 | -33.37838 | -70.79355 | 1581 ft | 4 kts | 51° |
| 2026-04-30 21:55 | -33.37851 | -70.79304 | 1581 ft | 10 kts | 124° |
| 2026-04-30 21:55 | -33.37909 | -70.79217 | 1582 ft | 15 kts | 144° |
| 2026-04-30 21:56 | -33.38005 | -70.79145 | 1584 ft | 17 kts | 149° |
| 2026-04-30 21:56 | -33.38118 | -70.79059 | 1583 ft | 21 kts | 148° |
| 2026-04-30 21:56 | -33.38225 | -70.78983 | 1583 ft | 11 kts | 150° |
| 2026-04-30 21:56 | -33.38304 | -70.78919 | 1583 ft | 15 kts | 146° |
| 2026-04-30 21:57 | -33.38297 | -70.78848 | 1583 ft | 13 kts | 5° |
| 2026-04-30 21:57 | -33.38227 | -70.78852 | 1583 ft | 16 kts | 356° |
| 2026-04-30 21:57 | -33.38052 | -70.78861 | 1583 ft | 21 kts | 358° |
| 2026-04-30 21:57 | -33.37892 | -70.78869 | 1581 ft | 25 kts | 358° |
| 2026-04-30 21:58 | -33.37736 | -70.78879 | 1580 ft | 11 kts | 2° |
| 2026-04-30 21:58 | -33.37640 | -70.78878 | 1580 ft | 15 kts | 2° |
| 2026-04-30 21:58 | -33.37550 | -70.78816 | 1580 ft | 17 kts | 73° |
| 2026-04-30 21:58 | -33.37590 | -70.78674 | 1580 ft | 20 kts | 148° |
| 2026-04-30 21:59 | -33.37741 | -70.78658 | 1582 ft | 23 kts | 186° |
| 2026-04-30 21:59 | -33.37907 | -70.78649 | 1583 ft | 24 kts | 178° |
| 2026-04-30 21:59 | -33.38132 | -70.78651 | 1583 ft | 56 kts | 180° |
| 2026-04-30 22:00 | -33.40189 | -70.78537 | 2374 ft | 210 kts | 176° |
| 2026-04-30 22:00 | -33.43328 | -70.78355 | 4097 ft | 252 kts | 176° |
| 2026-04-30 22:00 | -33.45177 | -70.78236 | 4912 ft | 273 kts | 176° |
| 2026-04-30 22:01 | -33.47096 | -70.78116 | 5954 ft | 285 kts | 176° |
| 2026-04-30 22:01 | -33.49081 | -70.77992 | 7084 ft | 292 kts | 177° |
| 2026-04-30 22:01 | -33.51113 | -70.77863 | 8178 ft | 301 kts | 178° |
| 2026-04-30 22:01 | -33.53214 | -70.77734 | 9262 ft | 310 kts | 179° |
| 2026-04-30 22:02 | -33.55323 | -70.78072 | 10420 ft | 314 kts | 202° |
| 2026-04-30 22:02 | -33.56672 | -70.78822 | 10823 ft | 330 kts | 215° |
| 2026-04-30 22:02 | -33.58948 | -70.81407 | 11773 ft | 353 kts | 240° |
| 2026-04-30 22:02 | -33.59986 | -70.84048 | 13103 ft | 349 kts | 259° |
| 2026-04-30 22:03 | -33.60301 | -70.86840 | 14488 ft | 341 kts | 274° |
| 2026-04-30 22:03 | -33.59940 | -70.89622 | 15514 ft | 344 kts | 289° |
| 2026-04-30 22:03 | -33.59141 | -70.92343 | 16015 ft | 356 kts | 291° |
| 2026-04-30 22:03 | -33.58333 | -70.95085 | 15956 ft | 339 kts | 291° |
| 2026-04-30 22:04 | -33.57916 | -70.96845 | 15957 ft | 327 kts | 284° |
| 2026-04-30 22:04 | -33.57704 | -71.00351 | 15982 ft | 305 kts | 274° |
| 2026-04-30 22:04 | -33.57919 | -71.05288 | 16008 ft | 302 kts | 268° |
| 2026-04-30 22:05 | -33.58184 | -71.07890 | 16030 ft | 328 kts | 266° |
| 2026-04-30 22:05 | -33.58389 | -71.10608 | 15999 ft | 324 kts | 275° |
| 2026-04-30 22:05 | -33.57970 | -71.13187 | 15996 ft | 312 kts | 293° |
| 2026-04-30 22:05 | -33.57318 | -71.14728 | 16006 ft | 311 kts | 304° |
| 2026-04-30 22:06 | -33.55261 | -71.17131 | 16007 ft | 314 kts | 327° |
| 2026-04-30 22:06 | -33.50976 | -71.18344 | 16005 ft | 327 kts | 0° |
| 2026-04-30 22:06 | -33.48723 | -71.17999 | 16013 ft | 329 kts | 3° |
| 2026-04-30 22:07 | -33.46357 | -71.17623 | 16031 ft | 355 kts | 3° |
| 2026-04-30 22:07 | -33.44726 | -71.17381 | 16015 ft | 361 kts | 1° |
| 2026-04-30 22:07 | -33.42236 | -71.17400 | 16000 ft | 352 kts | 349° |
| 2026-04-30 22:07 | -33.39046 | -71.18182 | 16007 ft | 349 kts | 341° |
| 2026-04-30 22:08 | -33.36737 | -71.19036 | 15995 ft | 348 kts | 339° |
| 2026-04-30 22:08 | -33.35205 | -71.19672 | 15991 ft | 347 kts | 338° |
| 2026-04-30 22:08 | -33.32943 | -71.20669 | 15995 ft | 348 kts | 336° |
| 2026-04-30 22:08 | -33.29942 | -71.22070 | 15987 ft | 347 kts | 335° |
| 2026-04-30 22:09 | -33.27684 | -71.23156 | 15988 ft | 347 kts | 335° |
| 2026-04-30 22:09 | -33.25455 | -71.24240 | 15988 ft | 347 kts | 335° |
| 2026-04-30 22:09 | -33.23222 | -71.25327 | 16006 ft | 348 kts | 335° |
| 2026-04-30 22:09 | -33.20991 | -71.26430 | 15992 ft | 347 kts | 335° |
| 2026-04-30 22:10 | -33.18746 | -71.27535 | 15983 ft | 346 kts | 334° |
| 2026-04-30 22:10 | -33.16529 | -71.28623 | 15994 ft | 348 kts | 335° |
| 2026-04-30 22:10 | -33.14285 | -71.29731 | 15985 ft | 347 kts | 335° |
| 2026-04-30 22:10 | -33.12048 | -71.30828 | 15985 ft | 349 kts | 335° |
| 2026-04-30 22:11 | -33.07582 | -71.33029 | 15993 ft | 346 kts | 335° |
| 2026-04-30 22:11 | -33.05365 | -71.34119 | 15990 ft | 346 kts | 335° |
| 2026-04-30 22:11 | -33.03855 | -71.34869 | 15988 ft | 348 kts | 334° |
| 2026-04-30 22:12 | -33.00874 | -71.36329 | 15998 ft | 349 kts | 335° |
| 2026-04-30 22:12 | -32.98647 | -71.37426 | 15990 ft | 347 kts | 335° |
| 2026-04-30 22:12 | -32.96389 | -71.38541 | 15997 ft | 347 kts | 335° |
| 2026-04-30 22:12 | -32.94160 | -71.39633 | 15995 ft | 347 kts | 334° |
| 2026-04-30 22:13 | -32.91925 | -71.40733 | 15857 ft | 347 kts | 334° |
| 2026-04-30 22:13 | -32.89736 | -71.41805 | 15602 ft | 336 kts | 335° |
| 2026-04-30 22:13 | -32.88306 | -71.42509 | 15514 ft | 325 kts | 334° |
| 2026-04-30 22:13 | -32.86271 | -71.43507 | 15430 ft | 311 kts | 335° |
| 2026-04-30 22:14 | -32.83625 | -71.44809 | 14991 ft | 304 kts | 335° |
| 2026-04-30 22:14 | -32.82331 | -71.45445 | 14801 ft | 301 kts | 334° |
| 2026-04-30 22:14 | -32.79765 | -71.46706 | 14461 ft | 298 kts | 335° |
| 2026-04-30 22:14 | -32.78447 | -71.47219 | 14196 ft | 304 kts | 344° |
| 2026-04-30 22:15 | -32.75621 | -71.47205 | 13706 ft | 310 kts | 8° |
| 2026-04-30 22:15 | -32.73622 | -71.46234 | 13396 ft | 313 kts | 27° |
| 2026-04-30 22:15 | -32.71970 | -71.44517 | 13174 ft | 318 kts | 46° |
| 2026-04-30 22:15 | -32.70847 | -71.42255 | 12978 ft | 329 kts | 65° |
| 2026-04-30 22:16 | -32.70336 | -71.39574 | 12782 ft | 335 kts | 82° |
| 2026-04-30 22:16 | -32.70390 | -71.37728 | 12677 ft | 339 kts | 95° |
| 2026-04-30 22:17 | -32.74632 | -71.30183 | 12195 ft | 322 kts | 138° |
| 2026-04-30 22:17 | -32.75745 | -71.29000 | 11993 ft | 324 kts | 138° |
| 2026-04-30 22:17 | -32.79527 | -71.24738 | 11223 ft | 319 kts | 127° |
| 2026-04-30 22:18 | -32.80698 | -71.22540 | 10942 ft | 312 kts | 115° |
| 2026-04-30 22:18 | -32.82373 | -71.17956 | 10510 ft | 299 kts | 108° |
| 2026-04-30 22:19 | -32.83783 | -71.13258 | 10456 ft | 304 kts | 106° |
| 2026-04-30 22:19 | -32.84447 | -71.10897 | 10386 ft | 303 kts | 105° |
| 2026-04-30 22:19 | -32.85538 | -71.06947 | 10260 ft | 298 kts | 105° |
| 2026-04-30 22:20 | -32.86174 | -71.04616 | 10104 ft | 291 kts | 105° |
| 2026-04-30 22:20 | -32.87565 | -70.99194 | 9987 ft | 304 kts | 103° |
| 2026-04-30 22:20 | -32.87956 | -70.97573 | 9796 ft | 301 kts | 103° |
| 2026-04-30 22:21 | -32.88713 | -70.94439 | 9428 ft | 295 kts | 103° |
| 2026-04-30 22:21 | -32.89271 | -70.92126 | 9202 ft | 290 kts | 103° |
| 2026-04-30 22:21 | -32.89639 | -70.90599 | 9087 ft | 288 kts | 103° |
| 2026-04-30 22:21 | -32.90367 | -70.87573 | 9070 ft | 285 kts | 104° |
| 2026-04-30 22:22 | -32.90738 | -70.86028 | 9067 ft | 290 kts | 104° |
| 2026-04-30 22:22 | -32.91430 | -70.83772 | 9062 ft | 294 kts | 119° |
| 2026-04-30 22:22 | -32.93361 | -70.81541 | 8736 ft | 294 kts | 154° |
| 2026-04-30 22:22 | -32.95273 | -70.80898 | 8273 ft | 284 kts | 178° |
| 2026-04-30 22:23 | -32.96598 | -70.80839 | 7950 ft | 279 kts | 180° |
| 2026-04-30 22:23 | -32.99150 | -70.80718 | 7301 ft | 273 kts | 180° |
| 2026-04-30 22:23 | -33.00388 | -70.80654 | 7090 ft | 265 kts | 180° |
| 2026-04-30 22:23 | -33.02755 | -70.80527 | 6983 ft | 249 kts | 180° |
| 2026-04-30 22:24 | -33.03899 | -70.80469 | 6868 ft | 247 kts | 180° |
| 2026-04-30 22:24 | -33.05586 | -70.80373 | 6842 ft | 237 kts | 180° |
| 2026-04-30 22:24 | -33.07842 | -70.80254 | 6305 ft | 248 kts | 180° |
| 2026-04-30 22:24 | -33.08987 | -70.80196 | 6167 ft | 246 kts | 180° |
| 2026-04-30 22:25 | -33.11223 | -70.80076 | 5943 ft | 234 kts | 180° |
| 2026-04-30 22:25 | -33.12774 | -70.79990 | 5807 ft | 216 kts | 181° |
| 2026-04-30 22:25 | -33.14241 | -70.79915 | 5628 ft | 205 kts | 180° |
| 2026-04-30 22:25 | -33.15657 | -70.79839 | 5277 ft | 204 kts | 181° |
| 2026-04-30 22:26 | -33.18354 | -70.79694 | 5045 ft | 182 kts | 181° |
| 2026-04-30 22:26 | -33.19593 | -70.79627 | 5013 ft | 173 kts | 180° |
| 2026-04-30 22:26 | -33.20806 | -70.79562 | 4830 ft | 176 kts | 181° |
| 2026-04-30 22:27 | -33.22040 | -70.79500 | 4618 ft | 179 kts | 179° |
| 2026-04-30 22:27 | -33.23285 | -70.79433 | 4396 ft | 181 kts | 180° |
| 2026-04-30 22:27 | -33.25844 | -70.79295 | 3938 ft | 180 kts | 179° |
| 2026-04-30 22:28 | -33.27774 | -70.79189 | 3541 ft | 153 kts | 179° |
| 2026-04-30 22:28 | -33.29098 | -70.79120 | 3248 ft | 134 kts | 179° |
| 2026-04-30 22:29 | -33.31746 | -70.78979 | 2719 ft | 127 kts | 179° |
| 2026-04-30 22:29 | -33.32627 | -70.78931 | 2575 ft | 127 kts | 178° |
| 2026-04-30 22:30 | -33.35832 | -70.78760 | 1954 ft | 126 kts | 180° |
| 2026-04-30 22:31 | -33.38321 | -70.78622 | 1581 ft | 77 kts | 178° |
| 2026-04-30 22:32 | -33.39224 | -70.78715 | 1587 ft | 0 kts | 212° |
| 2026-04-30 22:32 | -33.39252 | -70.78793 | 1588 ft | 7 kts | 330° |
| 2026-04-30 22:33 | -33.38936 | -70.78813 | 1587 ft | 22 kts | 356° |
| 2026-04-30 22:33 | -33.38562 | -70.78834 | 1584 ft | 31 kts | 357° |
| 2026-04-30 22:34 | -33.37987 | -70.79159 | 1581 ft | 31 kts | 327° |
| 2026-04-30 22:35 | -33.37877 | -70.79253 | 1579 ft | 7 kts | 296° |
| 2026-04-30 22:36 | -33.37905 | -70.79363 | 1578 ft | 0 kts | 239° |